sensor_id;sensor_type;location;lat;lon;timestamp;pressure;altitude;pressure_sealevel;temperature;humidity
40730;BME280;26418;50.070;8.436;2022-12-18T00:00:44;101386.50;;;-7.61;85.13
40730;BME280;26418;50.070;8.436;2022-12-18T00:03:12;101370.91;;;-7.63;84.88
40730;BME280;26418;50.070;8.436;2022-12-18T00:05:48;101369.78;;;-7.60;85.48
40730;BME280;26418;50.070;8.436;2022-12-18T00:08:14;101373.63;;;-7.54;85.69
40730;BME280;26418;50.070;8.436;2022-12-18T00:10:40;101372.78;;;-7.55;85.72
40730;BME280;26418;50.070;8.436;2022-12-18T00:13:06;101373.19;;;-7.50;85.95
40730;BME280;26418;50.070;8.436;2022-12-18T00:15:36;101369.00;;;-7.43;86.10
40730;BME280;26418;50.070;8.436;2022-12-18T00:18:02;101368.72;;;-7.39;85.18
40730;BME280;26418;50.070;8.436;2022-12-18T00:20:28;101374.53;;;-7.46;84.39
40730;BME280;26418;50.070;8.436;2022-12-18T00:22:54;101352.06;;;-7.58;83.83
40730;BME280;26418;50.070;8.436;2022-12-18T00:25:19;101368.53;;;-7.56;83.54
40730;BME280;26418;50.070;8.436;2022-12-18T00:27:45;101359.75;;;-7.75;82.54
40730;BME280;26418;50.070;8.436;2022-12-18T00:30:11;101374.38;;;-7.72;83.35
40730;BME280;26418;50.070;8.436;2022-12-18T00:32:37;101371.22;;;-7.76;83.23
40730;BME280;26418;50.070;8.436;2022-12-18T00:35:04;101363.38;;;-7.85;82.96
40730;BME280;26418;50.070;8.436;2022-12-18T00:37:30;101363.81;;;-8.00;82.50
40730;BME280;26418;50.070;8.436;2022-12-18T00:39:56;101373.09;;;-8.15;83.15
40730;BME280;26418;50.070;8.436;2022-12-18T00:42:21;101377.97;;;-8.21;83.75
40730;BME280;26418;50.070;8.436;2022-12-18T00:45:06;101378.78;;;-8.20;83.81
40730;BME280;26418;50.070;8.436;2022-12-18T00:47:32;101384.56;;;-8.16;83.92
40730;BME280;26418;50.070;8.436;2022-12-18T00:49:57;101372.56;;;-8.19;83.39
40730;BME280;26418;50.070;8.436;2022-12-18T00:52:23;101379.75;;;-8.21;83.36
40730;BME280;26418;50.070;8.436;2022-12-18T00:54:48;101380.47;;;-8.29;83.83
40730;BME280;26418;50.070;8.436;2022-12-18T00:57:14;101379.63;;;-8.29;84.59
40730;BME280;26418;50.070;8.436;2022-12-18T00:59:39;101362.94;;;-8.38;84.58
40730;BME280;26418;50.070;8.436;2022-12-18T01:02:05;101390.94;;;-8.39;84.48
40730;BME280;26418;50.070;8.436;2022-12-18T01:04:32;101390.94;;;-8.39;84.87
40730;BME280;26418;50.070;8.436;2022-12-18T01:06:58;101389.84;;;-8.46;84.66
40730;BME280;26418;50.070;8.436;2022-12-18T01:09:24;101384.47;;;-8.44;84.85
40730;BME280;26418;50.070;8.436;2022-12-18T01:11:49;101387.41;;;-8.47;84.45
40730;BME280;26418;50.070;8.436;2022-12-18T01:14:15;101378.25;;;-8.43;84.15
40730;BME280;26418;50.070;8.436;2022-12-18T01:16:41;101380.59;;;-8.40;83.98
40730;BME280;26418;50.070;8.436;2022-12-18T01:19:07;101400.22;;;-8.34;83.38
40730;BME280;26418;50.070;8.436;2022-12-18T01:21:32;101403.28;;;-8.49;83.26
40730;BME280;26418;50.070;8.436;2022-12-18T01:23:58;101413.09;;;-8.51;84.04
40730;BME280;26418;50.070;8.436;2022-12-18T01:26:25;101408.94;;;-8.54;84.07
40730;BME280;26418;50.070;8.436;2022-12-18T01:28:51;101408.50;;;-8.59;84.37
40730;BME280;26418;50.070;8.436;2022-12-18T01:31:25;101415.16;;;-8.55;84.18
40730;BME280;26418;50.070;8.436;2022-12-18T01:33:52;101415.31;;;-8.56;84.52
40730;BME280;26418;50.070;8.436;2022-12-18T01:36:30;101409.22;;;-8.57;84.82
40730;BME280;26418;50.070;8.436;2022-12-18T01:39:13;101421.91;;;-8.62;84.53
40730;BME280;26418;50.070;8.436;2022-12-18T01:41:40;101423.00;;;-8.64;84.18
40730;BME280;26418;50.070;8.436;2022-12-18T01:45:00;101424.81;;;-8.65;84.54
40730;BME280;26418;50.070;8.436;2022-12-18T01:49:56;101424.41;;;-8.60;85.35
40730;BME280;26418;50.070;8.436;2022-12-18T01:52:24;101421.09;;;-8.52;84.62
40730;BME280;26418;50.070;8.436;2022-12-18T01:54:51;101414.03;;;-8.52;84.30
40730;BME280;26418;50.070;8.436;2022-12-18T01:57:18;101420.81;;;-8.59;83.77
40730;BME280;26418;50.070;8.436;2022-12-18T01:59:48;101410.47;;;-8.61;84.04
40730;BME280;26418;50.070;8.436;2022-12-18T02:02:16;101409.34;;;-8.58;83.90
40730;BME280;26418;50.070;8.436;2022-12-18T02:04:42;101405.59;;;-8.75;83.75
40730;BME280;26418;50.070;8.436;2022-12-18T02:07:16;101407.25;;;-8.64;84.64
40730;BME280;26418;50.070;8.436;2022-12-18T02:09:50;101408.50;;;-8.59;84.63
40730;BME280;26418;50.070;8.436;2022-12-18T02:12:21;101404.78;;;-8.66;84.43
40730;BME280;26418;50.070;8.436;2022-12-18T02:15:04;101416.94;;;-8.55;84.28
40730;BME280;26418;50.070;8.436;2022-12-18T02:17:39;101406.44;;;-8.65;84.06
40730;BME280;26418;50.070;8.436;2022-12-18T02:25:18;101394.84;;;-8.62;84.65
40730;BME280;26418;50.070;8.436;2022-12-18T02:27:48;101390.84;;;-8.66;83.92
40730;BME280;26418;50.070;8.436;2022-12-18T02:30:16;101378.16;;;-8.71;84.71
40730;BME280;26418;50.070;8.436;2022-12-18T02:32:46;101383.09;;;-8.68;85.55
40730;BME280;26418;50.070;8.436;2022-12-18T02:35:17;101379.94;;;-8.52;85.84
40730;BME280;26418;50.070;8.436;2022-12-18T02:37:46;101400.63;;;-8.39;84.90
40730;BME280;26418;50.070;8.436;2022-12-18T02:40:14;101391.66;;;-8.46;84.79
40730;BME280;26418;50.070;8.436;2022-12-18T02:42:41;101375.75;;;-8.45;85.80
40730;BME280;26418;50.070;8.436;2022-12-18T02:45:07;101384.34;;;-8.43;85.63
40730;BME280;26418;50.070;8.436;2022-12-18T02:47:37;101380.34;;;-8.47;85.68
40730;BME280;26418;50.070;8.436;2022-12-18T02:50:18;101379.22;;;-8.44;85.09
40730;BME280;26418;50.070;8.436;2022-12-18T02:56:18;101395.28;;;-8.47;84.51
40730;BME280;26418;50.070;8.436;2022-12-18T03:01:43;101400.50;;;-8.67;83.64
40730;BME280;26418;50.070;8.436;2022-12-18T03:07:02;101410.19;;;-8.77;84.75
40730;BME280;26418;50.070;8.436;2022-12-18T03:09:39;101402.56;;;-8.80;85.31
40730;BME280;26418;50.070;8.436;2022-12-18T03:12:16;101407.41;;;-8.86;85.58
40730;BME280;26418;50.070;8.436;2022-12-18T03:14:57;101408.66;;;-8.70;87.21
40730;BME280;26418;50.070;8.436;2022-12-18T03:17:27;101398.72;;;-8.66;87.64
40730;BME280;26418;50.070;8.436;2022-12-18T03:19:54;101403.69;;;-8.54;88.31
40730;BME280;26418;50.070;8.436;2022-12-18T03:22:23;101379.13;;;-8.52;88.88
40730;BME280;26418;50.070;8.436;2022-12-18T03:24:51;101396.31;;;-8.30;89.43
40730;BME280;26418;50.070;8.436;2022-12-18T03:27:18;101405.03;;;-8.20;89.68
40730;BME280;26418;50.070;8.436;2022-12-18T03:29:53;101387.63;;;-8.11;90.17
40730;BME280;26418;50.070;8.436;2022-12-18T03:32:26;101390.19;;;-7.92;90.17
40730;BME280;26418;50.070;8.436;2022-12-18T03:34:55;101380.09;;;-7.86;89.99
40730;BME280;26418;50.070;8.436;2022-12-18T03:37:23;101378.81;;;-7.82;90.09
40730;BME280;26418;50.070;8.436;2022-12-18T03:39:49;101382.38;;;-7.64;90.45
40730;BME280;26418;50.070;8.436;2022-12-18T03:42:21;101379.47;;;-7.61;90.31
40730;BME280;26418;50.070;8.436;2022-12-18T03:47:38;101377.16;;;-7.46;90.37
40730;BME280;26418;50.070;8.436;2022-12-18T03:50:12;101379.91;;;-7.37;90.52
40730;BME280;26418;50.070;8.436;2022-12-18T03:52:53;101374.50;;;-7.36;90.66
40730;BME280;26418;50.070;8.436;2022-12-18T03:55:23;101365.06;;;-7.29;90.50
40730;BME280;26418;50.070;8.436;2022-12-18T03:57:51;101370.56;;;-7.22;89.69
40730;BME280;26418;50.070;8.436;2022-12-18T04:00:19;101385.13;;;-7.28;89.32
40730;BME280;26418;50.070;8.436;2022-12-18T04:02:54;101375.56;;;-7.29;89.28
40730;BME280;26418;50.070;8.436;2022-12-18T04:05:22;101380.59;;;-7.35;88.87
40730;BME280;26418;50.070;8.436;2022-12-18T04:07:51;101382.94;;;-7.32;89.17
40730;BME280;26418;50.070;8.436;2022-12-18T04:10:17;101382.09;;;-7.33;88.59
40730;BME280;26418;50.070;8.436;2022-12-18T04:12:44;101374.00;;;-7.49;88.65
40730;BME280;26418;50.070;8.436;2022-12-18T04:15:11;101376.41;;;-7.56;89.32
40730;BME280;26418;50.070;8.436;2022-12-18T04:17:38;101368.09;;;-7.51;89.80
40730;BME280;26418;50.070;8.436;2022-12-18T04:20:04;101384.50;;;-7.49;89.85
40730;BME280;26418;50.070;8.436;2022-12-18T04:22:30;101375.66;;;-7.48;90.10
40730;BME280;26418;50.070;8.436;2022-12-18T04:24:55;101375.59;;;-7.38;89.99
40730;BME280;26418;50.070;8.436;2022-12-18T04:27:21;101369.53;;;-7.39;89.95
40730;BME280;26418;50.070;8.436;2022-12-18T04:29:47;101368.22;;;-7.25;90.19
40730;BME280;26418;50.070;8.436;2022-12-18T04:32:13;101375.34;;;-7.17;89.54
40730;BME280;26418;50.070;8.436;2022-12-18T04:34:38;101376.34;;;-7.18;89.25
40730;BME280;26418;50.070;8.436;2022-12-18T04:37:04;101368.06;;;-7.23;89.22
40730;BME280;26418;50.070;8.436;2022-12-18T04:39:29;101358.97;;;-7.29;89.63
40730;BME280;26418;50.070;8.436;2022-12-18T04:41:55;101372.19;;;-7.21;89.87
40730;BME280;26418;50.070;8.436;2022-12-18T04:44:21;101369.28;;;-7.18;90.03
40730;BME280;26418;50.070;8.436;2022-12-18T04:46:46;101371.75;;;-7.16;90.00
40730;BME280;26418;50.070;8.436;2022-12-18T04:49:12;101357.63;;;-7.15;89.79
40730;BME280;26418;50.070;8.436;2022-12-18T04:51:38;101349.22;;;-7.19;89.74
40730;BME280;26418;50.070;8.436;2022-12-18T04:54:04;101372.38;;;-7.04;89.72
40730;BME280;26418;50.070;8.436;2022-12-18T04:56:30;101371.56;;;-7.05;89.77
40730;BME280;26418;50.070;8.436;2022-12-18T04:58:56;101379.44;;;-7.05;89.82
40730;BME280;26418;50.070;8.436;2022-12-18T05:01:22;101363.31;;;-7.10;90.10
40730;BME280;26418;50.070;8.436;2022-12-18T05:03:47;101374.56;;;-7.00;89.77
40730;BME280;26418;50.070;8.436;2022-12-18T05:06:13;101373.91;;;-7.02;89.99
40730;BME280;26418;50.070;8.436;2022-12-18T05:08:39;101367.19;;;-6.96;89.36
40730;BME280;26418;50.070;8.436;2022-12-18T05:11:11;101378.63;;;-7.05;89.23
40730;BME280;26418;50.070;8.436;2022-12-18T05:13:38;101367.19;;;-7.14;89.60
40730;BME280;26418;50.070;8.436;2022-12-18T05:16:04;101372.91;;;-7.01;89.97
40730;BME280;26418;50.070;8.436;2022-12-18T05:18:31;101378.72;;;-6.97;90.12
40730;BME280;26418;50.070;8.436;2022-12-18T05:20:57;101389.53;;;-6.82;90.49
40730;BME280;26418;50.070;8.436;2022-12-18T05:23:24;101376.38;;;-6.82;90.02
40730;BME280;26418;50.070;8.436;2022-12-18T05:25:55;101394.34;;;-6.77;90.04
40730;BME280;26418;50.070;8.436;2022-12-18T05:28:22;101378.88;;;-6.81;90.28
40730;BME280;26418;50.070;8.436;2022-12-18T05:30:52;101376.09;;;-6.79;90.43
40730;BME280;26418;50.070;8.436;2022-12-18T05:33:20;101379.88;;;-6.82;90.68
40730;BME280;26418;50.070;8.436;2022-12-18T05:35:51;101373.75;;;-6.82;90.54
40730;BME280;26418;50.070;8.436;2022-12-18T05:38:18;101362.25;;;-6.99;90.59
40730;BME280;26418;50.070;8.436;2022-12-18T05:40:43;101359.94;;;-6.84;91.00
40730;BME280;26418;50.070;8.436;2022-12-18T05:43:10;101371.28;;;-6.84;90.68
40730;BME280;26418;50.070;8.436;2022-12-18T05:45:40;101361.50;;;-6.91;91.19
40730;BME280;26418;50.070;8.436;2022-12-18T05:48:06;101359.72;;;-6.91;91.01
40730;BME280;26418;50.070;8.436;2022-12-18T05:50:37;101371.19;;;-6.92;90.37
40730;BME280;26418;50.070;8.436;2022-12-18T05:53:04;101354.41;;;-7.09;90.23
40730;BME280;26418;50.070;8.436;2022-12-18T05:55:37;101370.19;;;-7.09;88.90
40730;BME280;26418;50.070;8.436;2022-12-18T05:58:04;101378.47;;;-7.22;87.96
40730;BME280;26418;50.070;8.436;2022-12-18T06:00:31;101376.81;;;-7.33;88.11
40730;BME280;26418;50.070;8.436;2022-12-18T06:02:58;101359.47;;;-7.44;87.27
40730;BME280;26418;50.070;8.436;2022-12-18T06:05:25;101370.81;;;-7.43;85.51
40730;BME280;26418;50.070;8.436;2022-12-18T06:07:51;101362.84;;;-7.61;85.54
40730;BME280;26418;50.070;8.436;2022-12-18T06:10:16;101381.13;;;-7.60;85.21
40730;BME280;26418;50.070;8.436;2022-12-18T06:12:42;101387.66;;;-7.74;85.19
40730;BME280;26418;50.070;8.436;2022-12-18T06:15:08;101389.06;;;-7.79;85.55
40730;BME280;26418;50.070;8.436;2022-12-18T06:17:34;101376.09;;;-7.91;85.16
40730;BME280;26418;50.070;8.436;2022-12-18T06:19:59;101390.50;;;-7.95;85.03
40730;BME280;26418;50.070;8.436;2022-12-18T06:22:26;101383.72;;;-8.07;85.08
40730;BME280;26418;50.070;8.436;2022-12-18T06:24:52;101400.56;;;-8.00;85.82
40730;BME280;26418;50.070;8.436;2022-12-18T06:27:18;101400.88;;;-8.03;86.00
40730;BME280;26418;50.070;8.436;2022-12-18T06:29:44;101409.00;;;-7.96;86.82
40730;BME280;26418;50.070;8.436;2022-12-18T06:32:10;101407.91;;;-7.94;87.34
40730;BME280;26418;50.070;8.436;2022-12-18T06:34:39;101409.94;;;-7.87;87.48
40730;BME280;26418;50.070;8.436;2022-12-18T06:37:04;101415.34;;;-7.89;88.00
40730;BME280;26418;50.070;8.436;2022-12-18T06:39:30;101394.56;;;-7.72;91.94
40730;BME280;26418;50.070;8.436;2022-12-18T06:41:56;101410.34;;;-7.35;94.26
40730;BME280;26418;50.070;8.436;2022-12-18T06:44:21;101395.47;;;-7.26;95.68
40730;BME280;26418;50.070;8.436;2022-12-18T06:46:47;101411.44;;;-7.09;95.55
40730;BME280;26418;50.070;8.436;2022-12-18T06:49:12;101423.97;;;-6.57;98.01
40730;BME280;26418;50.070;8.436;2022-12-18T06:51:38;101402.34;;;-6.51;97.52
40730;BME280;26418;50.070;8.436;2022-12-18T06:54:04;101414.22;;;-6.65;95.03
40730;BME280;26418;50.070;8.436;2022-12-18T06:56:30;101422.47;;;-6.42;95.61
40730;BME280;26418;50.070;8.436;2022-12-18T06:58:56;101417.56;;;-6.19;95.88
40730;BME280;26418;50.070;8.436;2022-12-18T07:01:22;101407.22;;;-6.20;93.79
40730;BME280;26418;50.070;8.436;2022-12-18T07:03:52;101413.69;;;-6.33;91.26
40730;BME280;26418;50.070;8.436;2022-12-18T07:06:20;101422.72;;;-6.53;90.32
40730;BME280;26418;50.070;8.436;2022-12-18T07:08:46;101428.44;;;-6.58;88.63
40730;BME280;26418;50.070;8.436;2022-12-18T07:11:12;101418.44;;;-6.72;87.42
40730;BME280;26418;50.070;8.436;2022-12-18T07:13:38;101414.72;;;-6.80;87.49
40730;BME280;26418;50.070;8.436;2022-12-18T07:16:13;101423.44;;;-6.79;87.45
40730;BME280;26418;50.070;8.436;2022-12-18T07:18:39;101429.97;;;-6.83;87.16
40730;BME280;26418;50.070;8.436;2022-12-18T07:21:06;101425.81;;;-7.04;86.67
40730;BME280;26418;50.070;8.436;2022-12-18T07:23:33;101401.97;;;-7.20;87.65
40730;BME280;26418;50.070;8.436;2022-12-18T07:26:07;101427.66;;;-7.14;87.43
40730;BME280;26418;50.070;8.436;2022-12-18T07:28:35;101418.44;;;-7.18;87.58
40730;BME280;26418;50.070;8.436;2022-12-18T07:31:05;101408.78;;;-7.28;86.91
40730;BME280;26418;50.070;8.436;2022-12-18T07:33:32;101413.09;;;-7.36;87.46
40730;BME280;26418;50.070;8.436;2022-12-18T07:35:59;101413.41;;;-7.39;87.86
40730;BME280;26418;50.070;8.436;2022-12-18T07:38:25;101408.56;;;-7.44;88.68
40730;BME280;26418;50.070;8.436;2022-12-18T07:40:51;101425.94;;;-7.33;88.53
40730;BME280;26418;50.070;8.436;2022-12-18T07:43:17;101418.13;;;-7.43;88.21
40730;BME280;26418;50.070;8.436;2022-12-18T07:45:43;101426.53;;;-7.39;88.45
40730;BME280;26418;50.070;8.436;2022-12-18T07:48:09;101423.75;;;-7.38;88.60
40730;BME280;26418;50.070;8.436;2022-12-18T07:50:34;101430.25;;;-7.42;88.27
40730;BME280;26418;50.070;8.436;2022-12-18T07:53:00;101418.41;;;-7.46;87.38
40730;BME280;26418;50.070;8.436;2022-12-18T07:55:29;101411.31;;;-7.46;88.22
40730;BME280;26418;50.070;8.436;2022-12-18T07:57:55;101422.00;;;-7.47;87.79
40730;BME280;26418;50.070;8.436;2022-12-18T08:00:21;101410.91;;;-7.41;88.03
40730;BME280;26418;50.070;8.436;2022-12-18T08:02:47;101427.84;;;-7.26;88.12
40730;BME280;26418;50.070;8.436;2022-12-18T08:05:14;101429.50;;;-7.24;87.97
40730;BME280;26418;50.070;8.436;2022-12-18T08:07:40;101440.97;;;-7.26;88.18
40730;BME280;26418;50.070;8.436;2022-12-18T08:10:08;101438.13;;;-7.32;88.31
40730;BME280;26418;50.070;8.436;2022-12-18T08:12:39;101450.25;;;-7.21;89.03
40730;BME280;26418;50.070;8.436;2022-12-18T08:15:05;101437.06;;;-7.12;89.18
40730;BME280;26418;50.070;8.436;2022-12-18T08:17:31;101434.59;;;-6.95;88.53
40730;BME280;26418;50.070;8.436;2022-12-18T08:19:56;101440.56;;;-6.93;87.42
40730;BME280;26418;50.070;8.436;2022-12-18T08:22:23;101443.72;;;-6.89;87.30
40730;BME280;26418;50.070;8.436;2022-12-18T08:24:48;101433.53;;;-7.02;87.01
40730;BME280;26418;50.070;8.436;2022-12-18T08:27:14;101436.59;;;-7.07;87.14
40730;BME280;26418;50.070;8.436;2022-12-18T08:29:39;101438.97;;;-7.04;87.62
40730;BME280;26418;50.070;8.436;2022-12-18T08:32:05;101434.38;;;-7.02;87.83
40730;BME280;26418;50.070;8.436;2022-12-18T08:34:31;101416.16;;;-7.13;86.99
40730;BME280;26418;50.070;8.436;2022-12-18T08:36:56;101428.59;;;-7.05;87.07
40730;BME280;26418;50.070;8.436;2022-12-18T08:39:22;101434.06;;;-6.99;86.60
40730;BME280;26418;50.070;8.436;2022-12-18T08:41:47;101428.97;;;-7.00;86.52
40730;BME280;26418;50.070;8.436;2022-12-18T08:44:33;101414.16;;;-7.01;86.78
40730;BME280;26418;50.070;8.436;2022-12-18T08:47:07;101425.16;;;-6.88;86.90
40730;BME280;26418;50.070;8.436;2022-12-18T08:49:33;101410.66;;;-6.74;88.41
40730;BME280;26418;50.070;8.436;2022-12-18T08:52:02;101420.09;;;-6.53;88.24
40730;BME280;26418;50.070;8.436;2022-12-18T08:54:28;101399.31;;;-6.56;87.39
40730;BME280;26418;50.070;8.436;2022-12-18T08:56:54;101403.47;;;-6.54;86.27
40730;BME280;26418;50.070;8.436;2022-12-18T08:59:20;101418.50;;;-6.46;86.82
40730;BME280;26418;50.070;8.436;2022-12-18T09:01:46;101413.94;;;-6.44;87.06
40730;BME280;26418;50.070;8.436;2022-12-18T09:04:12;101423.16;;;-6.40;86.54
40730;BME280;26418;50.070;8.436;2022-12-18T09:06:40;101414.44;;;-6.40;86.67
40730;BME280;26418;50.070;8.436;2022-12-18T09:09:06;101416.47;;;-6.34;86.96
40730;BME280;26418;50.070;8.436;2022-12-18T09:11:35;101434.50;;;-6.21;86.71
40730;BME280;26418;50.070;8.436;2022-12-18T09:14:01;101425.41;;;-6.27;86.33
40730;BME280;26418;50.070;8.436;2022-12-18T09:16:27;101440.97;;;-6.16;86.52
40730;BME280;26418;50.070;8.436;2022-12-18T09:18:56;101453.69;;;-6.11;86.12
40730;BME280;26418;50.070;8.436;2022-12-18T09:21:27;101442.47;;;-6.13;85.66
40730;BME280;26418;50.070;8.436;2022-12-18T09:23:54;101448.56;;;-6.12;85.81
40730;BME280;26418;50.070;8.436;2022-12-18T09:26:21;101457.47;;;-6.13;86.17
40730;BME280;26418;50.070;8.436;2022-12-18T09:28:47;101461.44;;;-6.09;85.91
40730;BME280;26418;50.070;8.436;2022-12-18T09:31:13;101449.31;;;-6.02;86.47
40730;BME280;26418;50.070;8.436;2022-12-18T09:33:39;101434.94;;;-6.08;86.24
40730;BME280;26418;50.070;8.436;2022-12-18T09:36:09;101448.75;;;-5.88;85.99
40730;BME280;26418;50.070;8.436;2022-12-18T09:38:35;101445.22;;;-5.96;85.43
40730;BME280;26418;50.070;8.436;2022-12-18T09:43:47;101424.81;;;-5.94;85.49
40730;BME280;26418;50.070;8.436;2022-12-18T09:46:19;101442.69;;;-5.80;85.08
40730;BME280;26418;50.070;8.436;2022-12-18T09:48:50;101443.78;;;-5.64;86.90
40730;BME280;26418;50.070;8.436;2022-12-18T09:51:27;101436.03;;;-5.31;87.94
40730;BME280;26418;50.070;8.436;2022-12-18T09:54:01;101437.44;;;-5.19;85.62
40730;BME280;26418;50.070;8.436;2022-12-18T09:56:31;101438.41;;;-5.20;83.99
40730;BME280;26418;50.070;8.436;2022-12-18T09:59:01;101454.25;;;-5.20;83.97
40730;BME280;26418;50.070;8.436;2022-12-18T10:01:28;101452.28;;;-5.18;83.09
40730;BME280;26418;50.070;8.436;2022-12-18T10:03:55;101452.53;;;-5.29;82.38
40730;BME280;26418;50.070;8.436;2022-12-18T10:06:32;101449.53;;;-5.43;82.68
40730;BME280;26418;50.070;8.436;2022-12-18T10:09:17;101454.41;;;-5.48;83.30
40730;BME280;26418;50.070;8.436;2022-12-18T10:11:59;101452.91;;;-5.50;83.66
40730;BME280;26418;50.070;8.436;2022-12-18T10:14:49;101455.25;;;-5.47;83.80
40730;BME280;26418;50.070;8.436;2022-12-18T10:17:46;101443.88;;;-5.48;83.61
40730;BME280;26418;50.070;8.436;2022-12-18T10:22:50;101426.47;;;-5.32;83.74
40730;BME280;26418;50.070;8.436;2022-12-18T10:27:56;101423.25;;;-5.18;83.09
40730;BME280;26418;50.070;8.436;2022-12-18T10:30:24;101426.75;;;-5.09;83.37
40730;BME280;26418;50.070;8.436;2022-12-18T10:32:51;101424.94;;;-5.09;82.57
40730;BME280;26418;50.070;8.436;2022-12-18T10:35:26;101422.81;;;-5.05;82.39
40730;BME280;26418;50.070;8.436;2022-12-18T10:41:05;101428.78;;;-4.86;81.05
40730;BME280;26418;50.070;8.436;2022-12-18T10:43:36;101435.06;;;-4.87;80.55
40730;BME280;26418;50.070;8.436;2022-12-18T10:53:57;101435.00;;;-4.36;79.95
40730;BME280;26418;50.070;8.436;2022-12-18T10:56:26;101422.47;;;-4.43;79.24
40730;BME280;26418;50.070;8.436;2022-12-18T10:59:06;101417.81;;;-4.40;78.97
40730;BME280;26418;50.070;8.436;2022-12-18T11:02:07;101428.72;;;-4.35;79.86
40730;BME280;26418;50.070;8.436;2022-12-18T11:04:51;101423.63;;;-4.29;79.53
40730;BME280;26418;50.070;8.436;2022-12-18T11:07:17;101425.09;;;-4.26;78.28
40730;BME280;26418;50.070;8.436;2022-12-18T11:09:42;101425.91;;;-4.26;78.84
40730;BME280;26418;50.070;8.436;2022-12-18T11:12:15;101430.03;;;-4.15;79.32
40730;BME280;26418;50.070;8.436;2022-12-18T11:14:48;101417.00;;;-4.08;78.95
40730;BME280;26418;50.070;8.436;2022-12-18T11:17:35;101414.84;;;-4.04;78.59
40730;BME280;26418;50.070;8.436;2022-12-18T11:20:04;101401.47;;;-4.03;78.88
40730;BME280;26418;50.070;8.436;2022-12-18T11:22:32;101410.06;;;-4.01;78.39
40730;BME280;26418;50.070;8.436;2022-12-18T11:27:26;101408.59;;;-4.20;77.37
40730;BME280;26418;50.070;8.436;2022-12-18T11:32:48;101413.06;;;-4.29;78.86
40730;BME280;26418;50.070;8.436;2022-12-18T11:35:51;101419.31;;;-4.30;78.78
40730;BME280;26418;50.070;8.436;2022-12-18T11:38:22;101414.69;;;-4.28;79.13
40730;BME280;26418;50.070;8.436;2022-12-18T11:41:00;101400.00;;;-4.30;78.04
40730;BME280;26418;50.070;8.436;2022-12-18T11:43:31;101405.28;;;-4.22;78.88
40730;BME280;26418;50.070;8.436;2022-12-18T11:46:04;101405.13;;;-4.12;79.34
40730;BME280;26418;50.070;8.436;2022-12-18T11:48:55;101400.84;;;-4.21;77.47
40730;BME280;26418;50.070;8.436;2022-12-18T11:51:34;101403.97;;;-4.18;77.59
40730;BME280;26418;50.070;8.436;2022-12-18T11:54:01;101412.72;;;-4.17;78.47
40730;BME280;26418;50.070;8.436;2022-12-18T11:56:33;101409.75;;;-4.14;77.39
40730;BME280;26418;50.070;8.436;2022-12-18T12:01:48;101411.41;;;-4.13;78.33
40730;BME280;26418;50.070;8.436;2022-12-18T12:18:01;101397.03;;;-4.11;77.71
40730;BME280;26418;50.070;8.436;2022-12-18T12:20:47;101401.81;;;-4.06;77.72
40730;BME280;26418;50.070;8.436;2022-12-18T12:25:46;101389.41;;;-4.05;76.52
40730;BME280;26418;50.070;8.436;2022-12-18T12:34:11;101388.09;;;-4.01;77.26
40730;BME280;26418;50.070;8.436;2022-12-18T12:37:11;101385.28;;;-4.08;76.87
40730;BME280;26418;50.070;8.436;2022-12-18T12:39:42;101386.28;;;-4.17;76.72
40730;BME280;26418;50.070;8.436;2022-12-18T12:45:22;101373.94;;;-4.17;77.97
40730;BME280;26418;50.070;8.436;2022-12-18T12:47:51;101368.78;;;-4.18;77.27
40730;BME280;26418;50.070;8.436;2022-12-18T12:50:19;101363.38;;;-4.25;77.23
40730;BME280;26418;50.070;8.436;2022-12-18T12:52:56;101371.28;;;-4.25;78.01
40730;BME280;26418;50.070;8.436;2022-12-18T12:55:24;101373.94;;;-4.25;77.95
40730;BME280;26418;50.070;8.436;2022-12-18T13:00:21;101373.56;;;-4.22;78.14
40730;BME280;26418;50.070;8.436;2022-12-18T13:04:03;101371.09;;;-4.15;78.38
40730;BME280;26418;50.070;8.436;2022-12-18T13:06:37;101366.31;;;-4.12;78.08
40730;BME280;26418;50.070;8.436;2022-12-18T13:09:05;101365.63;;;-4.05;77.98
40730;BME280;26418;50.070;8.436;2022-12-18T13:11:38;101350.13;;;-4.08;78.05
40730;BME280;26418;50.070;8.436;2022-12-18T13:14:24;101357.38;;;-4.02;78.41
40730;BME280;26418;50.070;8.436;2022-12-18T13:16:51;101351.59;;;-4.06;78.41
40730;BME280;26418;50.070;8.436;2022-12-18T13:19:23;101329.00;;;-4.08;77.81
40730;BME280;26418;50.070;8.436;2022-12-18T13:21:55;101329.81;;;-4.16;78.33
40730;BME280;26418;50.070;8.436;2022-12-18T13:24:26;101329.81;;;-4.16;78.68
40730;BME280;26418;50.070;8.436;2022-12-18T13:26:54;101324.53;;;-4.16;78.78
40730;BME280;26418;50.070;8.436;2022-12-18T13:29:41;101328.03;;;-4.24;78.57
40730;BME280;26418;50.070;8.436;2022-12-18T13:32:20;101318.28;;;-4.32;79.13
40730;BME280;26418;50.070;8.436;2022-12-18T13:37:54;101336.59;;;-4.30;79.72
40730;BME280;26418;50.070;8.436;2022-12-18T13:43:40;101331.31;;;-4.30;79.86
40730;BME280;26418;50.070;8.436;2022-12-18T13:46:18;101339.59;;;-4.25;82.23
40730;BME280;26418;50.070;8.436;2022-12-18T13:51:22;101313.94;;;-2.97;95.17
40730;BME280;26418;50.070;8.436;2022-12-18T13:54:32;101302.75;;;-2.61;93.65
40730;BME280;26418;50.070;8.436;2022-12-18T13:57:04;101298.91;;;-2.73;86.85
40730;BME280;26418;50.070;8.436;2022-12-18T13:59:42;101305.94;;;-2.89;85.71
40730;BME280;26418;50.070;8.436;2022-12-18T14:02:15;101306.91;;;-3.05;85.65
40730;BME280;26418;50.070;8.436;2022-12-18T14:04:45;101297.66;;;-3.09;85.81
40730;BME280;26418;50.070;8.436;2022-12-18T14:07:17;101301.34;;;-3.18;83.40
40730;BME280;26418;50.070;8.436;2022-12-18T14:09:52;101301.63;;;-3.36;82.43
40730;BME280;26418;50.070;8.436;2022-12-18T14:12:25;101304.38;;;-3.61;81.50
40730;BME280;26418;50.070;8.436;2022-12-18T14:17:53;101315.66;;;-3.67;84.67
40730;BME280;26418;50.070;8.436;2022-12-18T14:20:19;101312.53;;;-3.71;84.13
40730;BME280;26418;50.070;8.436;2022-12-18T14:22:47;101305.44;;;-3.79;84.02
40730;BME280;26418;50.070;8.436;2022-12-18T14:25:18;101324.63;;;-3.85;83.88
40730;BME280;26418;50.070;8.436;2022-12-18T14:27:46;101313.44;;;-3.95;83.58
40730;BME280;26418;50.070;8.436;2022-12-18T14:30:31;101318.72;;;-4.03;84.55